Burleson, TX (76028)

10:40 PM CDT on June 29, 2015 (GMT -0500)
Oak Valley Weather | | Change Station
CLOSE
Current Station
Personal Weather Station
Location: Burleson, TX
Elevation: 720 ft
Nearby Weather Stations

Elev 720 ft 32.53 °N, 97.29 °W | Updated 7 minutes ago

Clear
Clear
78.8 °F
Feels Like 80 °F
N
1.0
Wind Variable Wind from WSW
Gusts 3.0 mph

Today
High -- | Low -- °F
--% Chance of Precip.
Yesterday
High -- | Low -- °F
Precip. -- in
6:24 AM 8:40 PM
Waxing Gibbous, 95% visible
Pressure 29.99 in
Visibility 10.0 miles
Clouds Clear
Heat Index 80 °F
Dew Point 64 °F
Humidity 60%
Rainfall in
Snow Depth Not available.
UV 0 out of 12
Pollen 4.50 out of 12
Air Quality Not available.
Flu Activity Local Activity
METAR KFWS 300315Z AUTO 22006KT 10SM CLR 27/16 A2999 RMK AO2 LTG DSNT NW T02650160

More Conditions Fewer Conditions

Pressure 29.99 in
Visibility 10.0 miles
Clouds Clear
Heat Index 80 °F
Dew Point 64 °F
Humidity 60%
Rainfall in
Snow Depth Not available.
UV 0 out of 12
Pollen 4.50 out of 12
Air Quality Not available.
Flu Activity Local Activity
METAR KFWS 300315Z AUTO 22006KT 10SM CLR 27/16 A2999 RMK AO2 LTG DSNT NW T02650160

More Conditions Fewer Conditions

Nowcast | as of 10:37 PM CDT on June 29, 2015

Isolated showers and thunderstorms will continue to move across Fannin and Lamar counties through midnight. Cloud to ground lightning is the primary hazard. The remainder of north and central Texas will continue to see party cloudy skies with temperatures in the mid 70s away from urban areas...and in the low 80s for most urban areas.

×

10-Day Weather Forecast

×

Almanac

Astronomy

Jun. 29, 2015 Rise Set
Actual Time
Civil Twilight
Nautical Twilight
Astronomical Twilight
Moon
Length of Visible Light
Length of Day
Tomorrow will be .
, % of the Moon is Illuminated

Today's Extremes

State Highs State Lows

Community

WunderPhotos

Upload Photos

1,833,956 photos uploaded!

WunderBlogs® & News

Nearby

Air Quality

  Air Quality AQ Index Pollutant
Not available.

Snow Depth

Station Depth Elevation

Earthquake Activity

City Distance Mag. Time & Date
Minimum magnitude displayed is 2.5.

Coastal Water Temperatures

Place Temperature

Stations

Nearby Weather Stations

Station Location Temp. Windchill Dew Point Humidity Wind Precip. Elev Updated Type